createdAt,value
2023-05-11T00:01:27.927Z,1.40
2023-05-11T00:03:56.272Z,1.35
2023-05-11T00:06:23.281Z,1.20
2023-05-11T00:08:50.165Z,1.25
2023-05-11T00:11:18.681Z,1.00
2023-05-11T00:13:46.099Z,1.42
2023-05-11T00:16:13.106Z,1.40
2023-05-11T00:18:41.394Z,1.73
2023-05-11T00:21:08.229Z,1.30
2023-05-11T00:23:35.008Z,1.40
2023-05-11T00:26:01.913Z,1.50
2023-05-11T00:28:28.785Z,1.50
2023-05-11T00:30:56.764Z,1.40
2023-05-11T00:33:23.925Z,1.30
2023-05-11T00:35:51.589Z,1.20
2023-05-11T00:38:18.366Z,1.40
2023-05-11T00:40:45.526Z,1.48
2023-05-11T00:43:12.521Z,1.70
2023-05-11T00:45:40.429Z,1.25
2023-05-11T00:48:07.667Z,1.40
2023-05-11T00:50:36.220Z,1.30
2023-05-11T00:53:03.485Z,1.50
2023-05-11T00:55:30.852Z,1.40
2023-05-11T00:57:57.721Z,1.65
2023-05-11T01:00:24.815Z,1.35
2023-05-11T01:02:52.837Z,1.50
2023-05-11T01:05:20.275Z,1.40
2023-05-11T01:08:02.122Z,1.35
2023-05-11T01:10:47.988Z,1.30
2023-05-11T01:13:42.665Z,1.50
2023-05-11T01:16:18.593Z,1.40
2023-05-11T01:19:33.063Z,1.35
2023-05-11T01:22:03.566Z,1.30
2023-05-11T01:24:49.100Z,1.52
2023-05-11T01:27:36.754Z,1.30
2023-05-11T01:30:23.855Z,1.40
2023-05-11T01:32:51.424Z,1.60
2023-05-11T01:35:24.715Z,1.52
2023-05-11T01:37:55.405Z,1.60
2023-05-11T01:40:25.895Z,1.30
2023-05-11T01:43:02.528Z,1.30
2023-05-11T01:45:33.092Z,1.33
2023-05-11T01:48:03.045Z,1.20
2023-05-11T01:50:32.015Z,1.13
2023-05-11T01:53:00.000Z,1.40
2023-05-11T01:55:28.464Z,1.20
2023-05-11T01:57:56.418Z,1.30
2023-05-11T02:00:23.823Z,1.27
2023-05-11T02:02:51.993Z,1.33
2023-05-11T02:05:22.668Z,1.30
2023-05-11T02:07:55.623Z,1.20
2023-05-11T02:10:26.424Z,1.08
2023-05-11T02:12:55.093Z,1.17
2023-05-11T02:15:23.921Z,1.45
2023-05-11T02:17:51.697Z,1.10
2023-05-11T02:20:20.096Z,1.20
2023-05-11T02:22:47.546Z,1.55
2023-05-11T02:25:15.587Z,1.30
2023-05-11T02:27:42.651Z,1.15
2023-05-11T02:30:10.170Z,1.08
2023-05-11T02:32:42.491Z,1.40
2023-05-11T02:35:17.631Z,1.20
2023-05-11T02:37:47.912Z,1.40
2023-05-11T02:40:19.399Z,1.30
2023-05-11T02:42:53.530Z,1.50
2023-05-11T02:47:53.282Z,1.33
2023-05-11T02:50:22.676Z,1.42
2023-05-11T02:52:51.177Z,1.40
2023-05-11T02:55:20.860Z,1.15
2023-05-11T02:57:47.911Z,1.35
2023-05-11T03:00:14.915Z,1.38
2023-05-11T03:02:41.900Z,1.35
2023-05-11T03:05:09.118Z,1.30
2023-05-11T03:07:36.442Z,1.23
2023-05-11T03:10:03.898Z,1.60
2023-05-11T03:12:35.310Z,1.42
2023-05-11T03:15:04.135Z,1.38
2023-05-11T03:17:31.918Z,1.20
2023-05-11T03:20:03.532Z,1.30
2023-05-11T03:22:31.815Z,1.42
2023-05-11T03:24:58.944Z,1.10
2023-05-11T03:27:27.363Z,1.02
2023-05-11T03:29:55.775Z,1.10
2023-05-11T03:32:22.885Z,1.10
2023-05-11T03:34:49.975Z,1.25
2023-05-11T03:37:19.181Z,1.35
2023-05-11T03:39:48.252Z,1.90
2023-05-11T03:42:16.071Z,1.80
2023-05-11T03:44:46.189Z,1.40
2023-05-11T03:47:14.918Z,1.60
2023-05-11T03:49:43.289Z,1.70
2023-05-11T03:52:10.777Z,1.60
2023-05-11T03:54:38.160Z,1.70
2023-05-11T03:57:05.167Z,2.00
2023-05-11T03:59:31.941Z,1.60
2023-05-11T04:01:59.356Z,1.80
2023-05-11T04:04:30.817Z,1.80
2023-05-11T04:06:58.974Z,1.88
2023-05-11T04:09:26.280Z,1.77
2023-05-11T04:11:53.101Z,1.85
2023-05-11T04:14:20.824Z,1.70
2023-05-11T04:16:47.634Z,1.80
2023-05-11T04:19:14.536Z,1.88
2023-05-11T04:21:41.519Z,2.00
2023-05-11T04:24:08.497Z,1.70
2023-05-11T04:26:35.323Z,1.80
2023-05-11T04:29:02.203Z,1.88
2023-05-11T04:31:30.526Z,1.83
2023-05-11T04:33:57.499Z,1.50
2023-05-11T04:36:25.095Z,1.40
2023-05-11T04:38:53.347Z,1.50
2023-05-11T04:41:20.862Z,1.80
2023-05-11T04:43:47.717Z,1.77
2023-05-11T04:46:14.728Z,1.90
2023-05-11T04:48:41.981Z,1.70
2023-05-11T04:51:08.997Z,1.95
2023-05-11T04:53:35.857Z,2.10
2023-05-11T04:56:02.681Z,1.55
2023-05-11T04:58:29.440Z,1.42
2023-05-11T05:00:56.243Z,1.60
2023-05-11T05:03:23.048Z,1.55
2023-05-11T05:05:50.554Z,1.75
2023-05-11T05:08:18.716Z,1.27
2023-05-11T05:10:46.956Z,1.60
2023-05-11T05:13:13.801Z,1.40
2023-05-11T05:15:40.926Z,1.60
2023-05-11T05:18:07.765Z,1.67
2023-05-11T05:20:35.258Z,1.50
2023-05-11T05:23:02.687Z,1.65
2023-05-11T05:25:29.681Z,1.60
2023-05-11T05:27:56.489Z,1.55
2023-05-11T05:30:23.455Z,1.55
2023-05-11T05:32:50.858Z,1.50
2023-05-11T05:35:17.790Z,1.70
2023-05-11T05:37:44.659Z,1.27
2023-05-11T05:40:11.732Z,1.77
2023-05-11T05:42:38.662Z,2.60
2023-05-11T05:45:06.117Z,1.58
2023-05-11T05:47:33.059Z,1.80
2023-05-11T05:49:59.919Z,1.65
2023-05-11T05:52:26.830Z,1.90
2023-05-11T05:54:53.852Z,2.10
2023-05-11T05:57:21.123Z,1.90
2023-05-11T05:59:47.860Z,2.05
2023-05-11T06:02:15.021Z,2.25
2023-05-11T06:04:42.248Z,2.60
2023-05-11T06:07:09.133Z,2.58
2023-05-11T06:09:38.558Z,2.28
2023-05-11T06:12:06.321Z,2.20
2023-05-11T06:14:33.211Z,2.75
2023-05-11T06:16:59.964Z,2.33
2023-05-11T06:19:26.716Z,2.40
2023-05-11T06:21:53.477Z,2.40
2023-05-11T06:24:20.415Z,2.88
2023-05-11T06:26:47.190Z,2.47
2023-05-11T06:29:13.974Z,2.33
2023-05-11T06:31:41.354Z,2.38
2023-05-11T06:34:09.581Z,2.40
2023-05-11T06:36:36.380Z,2.30
2023-05-11T06:39:03.388Z,1.95
2023-05-11T06:41:30.176Z,1.85
2023-05-11T06:43:56.941Z,1.40
2023-05-11T06:46:23.989Z,1.25
2023-05-11T06:48:50.834Z,0.98
2023-05-11T06:51:17.912Z,1.10
2023-05-11T06:53:45.066Z,1.00
2023-05-11T06:56:11.854Z,1.30
2023-05-11T06:58:38.657Z,1.20
2023-05-11T07:01:08.028Z,0.82
2023-05-11T07:03:35.417Z,0.85
2023-05-11T07:06:02.587Z,0.75
2023-05-11T07:08:29.463Z,0.60
2023-05-11T07:10:57.671Z,0.57
2023-05-11T07:13:24.462Z,0.60
2023-05-11T07:15:51.219Z,0.57
2023-05-11T07:18:18.088Z,0.60
2023-05-11T07:20:46.979Z,0.60
2023-05-11T07:23:13.850Z,0.52
2023-05-11T07:25:40.650Z,0.60
2023-05-11T07:28:09.794Z,0.17
2023-05-11T07:30:36.703Z,0.00
2023-05-11T07:33:04.154Z,0.10
2023-05-11T07:35:31.013Z,0.38
2023-05-11T07:37:57.837Z,0.20
2023-05-11T07:40:24.963Z,0.20
2023-05-11T07:42:51.804Z,0.20
2023-05-11T07:45:18.677Z,0.20
2023-05-11T07:47:45.569Z,0.20
2023-05-11T07:50:12.886Z,0.10
2023-05-11T07:55:06.898Z,0.10
2023-05-11T07:57:33.718Z,0.20
2023-05-11T08:00:00.496Z,0.20
2023-05-11T08:02:27.730Z,0.22
2023-05-11T08:04:54.712Z,0.20
2023-05-11T08:07:21.523Z,0.40
2023-05-11T08:09:48.314Z,0.40
2023-05-11T08:12:15.561Z,0.40
2023-05-11T08:14:43.341Z,0.20
2023-05-11T08:17:10.215Z,0.25
2023-05-11T08:19:37.202Z,0.10
2023-05-11T08:22:04.010Z,0.20
2023-05-11T08:24:30.800Z,0.50
2023-05-11T08:26:57.615Z,0.30
2023-05-11T08:29:27.400Z,0.25
2023-05-11T08:31:54.422Z,0.20
2023-05-11T08:34:21.302Z,0.17
2023-05-11T08:36:48.173Z,0.40
2023-05-11T08:39:21.555Z,0.28
2023-05-11T08:41:59.721Z,0.40
2023-05-11T08:44:27.350Z,0.35
2023-05-11T08:47:08.611Z,0.22
2023-05-11T08:49:42.017Z,0.40
2023-05-11T08:52:10.737Z,0.28
2023-05-11T08:54:37.479Z,0.30
2023-05-11T08:57:04.756Z,0.20
2023-05-11T08:59:34.095Z,0.38
2023-05-11T09:02:02.283Z,0.30
2023-05-11T09:04:29.545Z,0.30
2023-05-11T09:06:57.633Z,0.30
2023-05-11T09:09:24.478Z,0.43
2023-05-11T09:11:54.321Z,0.25
2023-05-11T09:14:27.071Z,0.30
2023-05-11T09:16:54.406Z,0.37
2023-05-11T09:19:22.006Z,0.40
2023-05-11T09:21:48.944Z,0.60
2023-05-11T09:24:15.881Z,0.40
2023-05-11T09:26:42.664Z,0.30
2023-05-11T09:29:09.667Z,0.60
2023-05-11T09:31:41.956Z,0.30
2023-05-11T09:34:18.385Z,0.50
2023-05-11T09:36:46.985Z,0.45
2023-05-11T09:39:16.890Z,0.40
2023-05-11T09:41:43.947Z,0.60
2023-05-11T09:44:15.437Z,0.50
2023-05-11T09:46:44.683Z,0.43
2023-05-11T09:49:12.323Z,0.50
2023-05-11T09:51:40.947Z,0.50
2023-05-11T09:54:17.981Z,0.80
2023-05-11T09:56:49.635Z,1.02
2023-05-11T09:59:35.997Z,0.68
2023-05-11T10:02:22.885Z,0.30
2023-05-11T10:04:51.335Z,0.32
2023-05-11T10:07:31.397Z,0.30
2023-05-11T10:10:00.449Z,0.40
2023-05-11T10:12:28.328Z,0.28
2023-05-11T10:15:01.028Z,0.40
2023-05-11T10:17:29.133Z,0.30
2023-05-11T10:19:57.160Z,0.35
2023-05-11T10:22:28.718Z,0.60
2023-05-11T10:24:57.885Z,0.40
2023-05-11T10:27:25.298Z,0.50
2023-05-11T10:29:52.069Z,0.50
2023-05-11T10:32:20.718Z,0.60
2023-05-11T10:34:48.597Z,0.45
2023-05-11T10:37:16.743Z,0.30
2023-05-11T10:39:46.621Z,0.50
2023-05-11T10:42:56.466Z,0.50
2023-05-11T10:45:51.859Z,0.85
2023-05-11T10:48:37.540Z,0.45
2023-05-11T10:51:42.138Z,0.38
2023-05-11T10:56:54.098Z,0.43
2023-05-11T10:59:49.044Z,0.47
2023-05-11T11:02:18.000Z,0.40
2023-05-11T11:04:52.280Z,0.40
2023-05-11T11:07:19.916Z,0.47
2023-05-11T11:09:52.578Z,0.70
2023-05-11T11:12:21.133Z,0.50
2023-05-11T11:15:14.493Z,0.30
2023-05-11T11:17:41.402Z,0.30
2023-05-11T11:20:08.700Z,0.38
2023-05-11T11:22:35.819Z,0.30
2023-05-11T11:25:05.731Z,0.63
2023-05-11T11:27:41.906Z,1.00
2023-05-11T11:30:26.942Z,0.70
2023-05-11T11:33:07.373Z,0.47
2023-05-11T11:35:40.476Z,0.70
2023-05-11T11:38:11.227Z,0.50
2023-05-11T11:40:50.522Z,0.20
2023-05-11T11:43:29.181Z,0.20
2023-05-11T11:46:00.579Z,0.50
2023-05-11T11:48:31.888Z,0.77
2023-05-11T11:51:04.333Z,0.40
2023-05-11T11:53:37.639Z,0.30
2023-05-11T11:56:06.280Z,1.00
2023-05-11T11:58:44.641Z,1.10
2023-05-11T12:01:19.171Z,0.63
2023-05-11T12:03:53.778Z,0.80
2023-05-11T12:06:24.983Z,0.55
2023-05-11T12:08:53.599Z,0.20
2023-05-11T12:11:23.257Z,0.50
2023-05-11T12:13:50.122Z,0.43
2023-05-11T12:16:18.908Z,0.50
2023-05-11T12:19:00.845Z,0.93
2023-05-11T12:21:30.057Z,0.40
2023-05-11T12:24:02.551Z,0.60
2023-05-11T12:26:30.384Z,0.52
2023-05-11T12:29:13.787Z,0.60
2023-05-11T12:31:42.563Z,0.50
2023-05-11T12:34:16.483Z,0.77
2023-05-11T12:39:18.738Z,0.85
2023-05-11T12:41:46.776Z,0.70
2023-05-11T12:44:16.233Z,0.73
2023-05-11T12:46:45.756Z,0.70
2023-05-11T12:49:16.004Z,0.85
2023-05-11T12:51:51.576Z,0.75
2023-05-11T12:54:38.465Z,0.43
2023-05-11T12:57:07.783Z,0.40
2023-05-11T12:59:34.596Z,0.40
2023-05-11T13:02:21.061Z,0.40
2023-05-11T13:04:48.571Z,0.40
2023-05-11T13:07:27.659Z,0.47
2023-05-11T13:10:01.385Z,0.40
2023-05-11T13:15:12.729Z,0.50
2023-05-11T13:17:41.723Z,0.65
2023-05-11T13:20:29.702Z,0.40
2023-05-11T13:23:07.824Z,0.30
2023-05-11T13:25:46.624Z,1.23
2023-05-11T13:28:18.480Z,0.50
2023-05-11T13:30:46.125Z,0.50
2023-05-11T13:33:13.285Z,0.57
2023-05-11T13:35:44.077Z,0.50
2023-05-11T13:38:11.709Z,1.20
2023-05-11T13:40:39.197Z,0.50
2023-05-11T13:43:07.632Z,0.38
2023-05-11T13:45:36.513Z,0.55
2023-05-11T13:48:03.886Z,0.50
2023-05-11T13:50:30.898Z,0.70
2023-05-11T13:52:57.667Z,0.70
2023-05-11T13:55:24.710Z,0.68
2023-05-11T13:57:51.850Z,0.50
2023-05-11T14:00:19.795Z,0.50
2023-05-11T14:02:49.737Z,0.47
2023-05-11T14:05:17.600Z,0.65
2023-05-11T14:07:48.131Z,0.38
2023-05-11T14:10:20.273Z,0.50
2023-05-11T14:12:47.070Z,0.50
2023-05-11T14:15:13.893Z,0.50
2023-05-11T14:17:43.088Z,0.70
2023-05-11T14:20:11.570Z,0.85
2023-05-11T14:22:39.204Z,2.65
2023-05-11T14:25:06.570Z,1.55
2023-05-11T14:27:33.375Z,1.40
2023-05-11T14:30:00.391Z,1.33
2023-05-11T14:32:27.370Z,0.95
2023-05-11T14:34:54.234Z,1.00
2023-05-11T14:37:21.052Z,0.90
2023-05-11T14:39:48.082Z,1.10
2023-05-11T14:42:15.125Z,1.52
2023-05-11T14:44:42.098Z,1.50
2023-05-11T14:47:08.976Z,0.73
2023-05-11T14:49:35.756Z,0.88
2023-05-11T14:52:02.568Z,1.05
2023-05-11T14:54:29.837Z,0.75
2023-05-11T14:56:58.234Z,0.70
2023-05-11T14:59:26.462Z,1.00
2023-05-11T15:01:53.552Z,0.98
2023-05-11T15:04:20.733Z,1.20
2023-05-11T15:06:47.900Z,1.17
2023-05-11T15:09:14.836Z,1.20
2023-05-11T15:11:41.686Z,1.20
2023-05-11T15:14:08.631Z,1.00
2023-05-11T15:16:35.652Z,1.38
2023-05-11T15:19:02.591Z,1.10
2023-05-11T15:21:29.417Z,1.25
2023-05-11T15:23:56.381Z,1.50
2023-05-11T15:26:23.305Z,1.20
2023-05-11T15:28:50.398Z,1.42
2023-05-11T15:31:17.442Z,1.45
2023-05-11T15:33:44.852Z,1.30
2023-05-11T15:36:13.169Z,1.15
2023-05-11T15:38:40.883Z,0.50
2023-05-11T15:41:07.979Z,0.70
2023-05-11T15:43:35.278Z,0.70
2023-05-11T15:46:04.894Z,0.52
2023-05-11T15:48:32.036Z,0.52
2023-05-11T15:51:02.169Z,0.75
2023-05-11T15:53:29.190Z,0.75
2023-05-11T15:55:57.014Z,0.82
2023-05-11T15:58:23.863Z,0.95
2023-05-11T16:00:50.757Z,0.73
2023-05-11T16:03:17.795Z,1.00
2023-05-11T16:05:45.552Z,1.00
2023-05-11T16:08:13.270Z,0.93
2023-05-11T16:10:40.161Z,0.75
2023-05-11T16:13:07.524Z,0.80
2023-05-11T16:15:35.411Z,0.90
2023-05-11T16:18:04.633Z,0.73
2023-05-11T16:20:32.504Z,0.70
2023-05-11T16:22:59.379Z,0.85
2023-05-11T16:25:26.251Z,0.82
2023-05-11T16:27:53.108Z,0.90
2023-05-11T16:30:24.861Z,1.00
2023-05-11T16:32:52.739Z,1.00
2023-05-11T16:35:20.004Z,0.90
2023-05-11T16:37:47.973Z,1.08
2023-05-11T16:40:18.549Z,0.95
2023-05-11T16:42:46.938Z,1.30
2023-05-11T16:45:13.915Z,1.15
2023-05-11T16:47:41.230Z,1.17
2023-05-11T16:50:08.605Z,1.08
2023-05-11T16:52:35.447Z,1.10
2023-05-11T16:55:03.814Z,1.60
2023-05-11T16:57:31.639Z,1.58
2023-05-11T16:59:58.468Z,1.20
2023-05-11T17:02:25.410Z,1.17
2023-05-11T17:04:52.376Z,1.55
2023-05-11T17:07:19.233Z,1.23
2023-05-11T17:09:45.996Z,1.50
2023-05-11T17:12:12.945Z,1.10
2023-05-11T17:14:39.753Z,1.17
2023-05-11T17:17:08.129Z,1.50
2023-05-11T17:19:35.058Z,1.00
2023-05-11T17:22:02.298Z,0.90
2023-05-11T17:24:29.181Z,0.80
2023-05-11T17:26:56.015Z,0.90
2023-05-11T17:29:22.873Z,1.10
2023-05-11T17:31:51.861Z,0.90
2023-05-11T17:34:22.140Z,0.95
2023-05-11T17:36:50.615Z,1.20
2023-05-11T17:39:19.207Z,1.38
2023-05-11T17:41:46.155Z,1.55
2023-05-11T17:44:13.878Z,1.48
2023-05-11T17:46:40.689Z,1.50
2023-05-11T17:49:08.040Z,1.42
2023-05-11T17:51:36.453Z,1.45
2023-05-11T17:54:03.407Z,1.30
2023-05-11T17:56:30.192Z,1.80
2023-05-11T17:58:56.949Z,1.48
2023-05-11T18:01:23.877Z,1.85
2023-05-11T18:03:50.749Z,1.88
2023-05-11T18:06:17.873Z,2.22
2023-05-11T18:08:45.046Z,1.90
2023-05-11T18:11:12.852Z,1.80
2023-05-11T18:13:40.047Z,1.98
2023-05-11T18:16:07.282Z,2.30
2023-05-11T18:18:34.433Z,2.78
2023-05-11T18:21:05.654Z,2.35
2023-05-11T18:23:32.896Z,2.30
2023-05-11T18:26:00.071Z,2.40
2023-05-11T18:28:26.977Z,3.20
2023-05-11T18:30:54.280Z,2.65
2023-05-11T18:33:21.392Z,2.33
2023-05-11T18:35:48.244Z,2.30
2023-05-11T18:38:15.138Z,2.38
2023-05-11T18:40:41.894Z,2.20
2023-05-11T18:43:09.273Z,2.22
2023-05-11T18:45:36.183Z,1.70
2023-05-11T18:48:03.897Z,1.40
2023-05-11T18:50:30.782Z,1.50
2023-05-11T18:52:57.924Z,1.55
2023-05-11T18:55:25.331Z,1.70
2023-05-11T18:57:52.822Z,1.40
2023-05-11T19:00:20.729Z,1.70
2023-05-11T19:02:49.194Z,1.80
2023-05-11T19:05:16.167Z,1.88
2023-05-11T19:07:42.988Z,1.80
2023-05-11T19:10:09.983Z,1.70
2023-05-11T19:12:37.611Z,1.95
2023-05-11T19:15:04.687Z,1.90
2023-05-11T19:17:31.561Z,2.20
2023-05-11T19:19:58.397Z,1.65
2023-05-11T19:22:25.870Z,1.50
2023-05-11T19:24:52.618Z,1.92
2023-05-11T19:27:19.403Z,1.98
2023-05-11T19:29:48.889Z,2.15
2023-05-11T19:32:15.759Z,1.52
2023-05-11T19:34:42.518Z,2.20
2023-05-11T19:37:09.307Z,2.05
2023-05-11T19:39:36.133Z,2.00
2023-05-11T19:42:02.921Z,2.08
2023-05-11T19:44:33.158Z,1.90
2023-05-11T19:47:00.037Z,2.25
2023-05-11T19:49:28.018Z,2.50
2023-05-11T19:51:55.013Z,2.40
2023-05-11T19:54:22.342Z,2.58
2023-05-11T19:56:49.263Z,2.72
2023-05-11T19:59:16.097Z,2.70
2023-05-11T20:01:42.946Z,2.53
2023-05-11T20:04:11.939Z,2.80
2023-05-11T20:06:40.219Z,3.00
2023-05-11T20:09:07.436Z,3.88
2023-05-11T20:11:34.175Z,4.05
2023-05-11T20:14:01.087Z,4.15
2023-05-11T20:16:30.471Z,4.32
2023-05-11T20:18:59.335Z,4.00
2023-05-11T20:21:26.592Z,3.42
2023-05-11T20:23:53.494Z,3.20
2023-05-11T20:26:20.352Z,2.80
2023-05-11T20:28:47.332Z,2.55
2023-05-11T20:31:14.205Z,2.55
2023-05-11T20:36:15.634Z,2.27
2023-05-11T20:38:42.410Z,2.05
2023-05-11T20:41:10.157Z,1.95
2023-05-11T20:43:36.950Z,2.00
2023-05-11T20:46:05.383Z,1.83
2023-05-11T20:48:40.332Z,2.15
2023-05-11T20:51:09.920Z,2.30
2023-05-11T20:53:38.801Z,2.10
2023-05-11T20:56:05.872Z,1.90
2023-05-11T20:58:32.671Z,1.88
2023-05-11T21:00:59.618Z,2.10
2023-05-11T21:03:27.770Z,2.10
2023-05-11T21:05:54.602Z,2.10
2023-05-11T21:08:21.522Z,2.30
2023-05-11T21:10:48.405Z,2.00
2023-05-11T21:13:15.802Z,2.63
2023-05-11T21:15:42.629Z,2.40
2023-05-11T21:18:09.428Z,2.15
2023-05-11T21:20:36.447Z,2.35
2023-05-11T21:23:03.863Z,2.40
2023-05-11T21:25:30.939Z,2.65
2023-05-11T21:27:58.850Z,2.38
2023-05-11T21:30:25.605Z,2.00
2023-05-11T21:32:52.674Z,2.45
2023-05-11T21:35:19.600Z,2.00
2023-05-11T21:37:49.662Z,2.10
2023-05-11T21:40:17.951Z,2.40
2023-05-11T21:42:45.261Z,2.30
2023-05-11T21:45:12.354Z,2.20
2023-05-11T21:47:39.394Z,2.00
2023-05-11T21:50:07.790Z,2.15
2023-05-11T21:52:34.624Z,2.30
2023-05-11T21:55:01.431Z,2.20
2023-05-11T21:57:28.216Z,2.15
2023-05-11T21:59:55.040Z,2.30
2023-05-11T22:02:21.826Z,2.15
2023-05-11T22:04:48.714Z,2.30
2023-05-11T22:07:15.936Z,2.30
2023-05-11T22:09:42.840Z,2.40
2023-05-11T22:12:09.737Z,2.47
2023-05-11T22:14:36.551Z,2.42
2023-05-11T22:17:03.441Z,2.65
2023-05-11T22:19:30.213Z,2.05
2023-05-11T22:21:57.088Z,2.33
2023-05-11T22:24:26.916Z,2.05
2023-05-11T22:26:54.322Z,2.40
2023-05-11T22:29:21.916Z,2.05
2023-05-11T22:31:49.593Z,2.22
2023-05-11T22:34:16.826Z,2.20
2023-05-11T22:36:43.859Z,1.80
2023-05-11T22:39:11.491Z,2.65
2023-05-11T22:41:38.620Z,1.98
2023-05-11T22:44:05.665Z,1.90
2023-05-11T22:46:32.573Z,1.83
2023-05-11T22:48:59.438Z,1.90
2023-05-11T22:51:26.234Z,1.73
2023-05-11T22:53:53.025Z,1.60
2023-05-11T22:56:19.954Z,1.77
2023-05-11T22:58:46.699Z,2.17
2023-05-11T23:01:14.219Z,1.60
2023-05-11T23:03:41.186Z,2.00
2023-05-11T23:06:08.099Z,1.88
2023-05-11T23:08:34.952Z,1.50
2023-05-11T23:11:01.724Z,1.60
2023-05-11T23:13:28.450Z,1.38
2023-05-11T23:15:55.539Z,1.80
2023-05-11T23:18:22.387Z,1.70
2023-05-11T23:20:54.736Z,1.63
2023-05-11T23:23:21.534Z,1.77
2023-05-11T23:25:48.316Z,1.50
2023-05-11T23:28:15.093Z,2.00
2023-05-11T23:30:42.273Z,1.92
2023-05-11T23:33:09.171Z,2.00
2023-05-11T23:35:35.957Z,1.63
2023-05-11T23:38:02.818Z,1.98
2023-05-11T23:40:29.879Z,1.90
2023-05-11T23:42:57.051Z,1.60
2023-05-11T23:45:25.213Z,1.90
2023-05-11T23:47:52.420Z,1.80
2023-05-11T23:50:19.761Z,1.70
2023-05-11T23:52:46.742Z,2.00
2023-05-11T23:55:13.513Z,1.80
2023-05-11T23:57:41.288Z,1.80
